Arsenal, Arkansas
Current Conditions -  °F | °C
As of 7:53 AM on Friday 31 Oct 2014 (Local Time) from KPBF Reporting Station
Clear Clear  
Wind Chill: 12°   Ceiling: Unl
Heat Index: 12°   Visibility: 10mi
Dew Point:   Wind: 12mph
Humidity: 66%   Direction: 330°NNW
Pressure: 30.12"   Gusts: 18mph
Location:  34.193°N, 91.9403°W
Report Text: KPBF 311253Z AUTO 33010G16KT 10SM CLR 12/06 A3012 RMK AO2 SLP197 T01220061
Loading
Personal Weather Stations






























Interactive Weather Map
Tropical Storm Tracking
New forecast layout! Learn more

10-Day Weather Forecast

Advertisements
Track Severe Weather on mobile